Manhattan, NY

23:03 EST le 27 novembre 2014 (GMT -0500)
Murray Hill | Change Station
CLOSE
Current Station
Stations météorologiques personnelles
Location: New York, NY
Altitude: 98 ft
Stations météo à proximité

Alt. 98 ft 40.75 °N, 73.98 °W | Updated 2 seconds ago

Overcast
Couvert
35.8 ° F
Paraît 32 ° F
N
4.0
Vent Variable Vent de ONO
Gusts 18.0 mph

Aujourd'hui
Haut(e) -- | Bas -- ° F
--% Risque de précip.
Hier
Haut(e) -- | Bas -- ° F
Precip. -- pouce
6:56 AM 4:30 PM
Lune montante, 36% visible
Pression 30.06 pouce
Visibilité 10.0 Miles terrestres
Nuages Couvert 4000 ft
Refroidissement éolien 32 ° F
Point de rosée 28 ° F
Humidité 72%
Précipitations 0.02 pouce
Profondeur de la couche neigeuse Non disponible.
UV 0 sur 12
Pollen .10 sur 12
Qualité de l'air Non disponible.
Flu Activity Non disponible.
METAR KNYC 280351Z AUTO 30009G15KT 10SM OVC040 02/M04 A3008 RMK AO2 SLP178 T00221044 $

More Conditions Fewer Conditions

Pression 30.06 pouce
Visibilité 10.0 Miles terrestres
Nuages Couvert 4000 ft
Refroidissement éolien 32 ° F
Point de rosée 28 ° F
Humidité 72%
Précipitations 0.02 pouce
Profondeur de la couche neigeuse Non disponible.
UV 0 sur 12
Pollen .10 sur 12
Qualité de l'air Non disponible.
Flu Activity Non disponible.
METAR KNYC 280351Z AUTO 30009G15KT 10SM OVC040 02/M04 A3008 RMK AO2 SLP178 T00221044 $

More Conditions Fewer Conditions

10-Day Weather Forecast

Almanac

Astronomie

Nov. 27, 2014 Lever Coucher
Temps réel
Crépuscule civil
Crépuscule nautique
Crépuscule astronomique
Lune
Durée de lumière visible
Longueur du jour
Tomorrow will be .
, % of the Moon is Illuminated

Extrêmes aujourd'hui

State Highs State Lows

Community

WunderPhotos

Upload Photos

1,774,176 Photos téléchargées !

WunderBlogs® & News

Nearby

Qualité de l'air

  Qualité de l'air Indice de la qualité de l'air Polluant
Not available.

Épaisseur de neige

Station Depth Altitude

Activité sismique

Ville Distance Mag. Time & Date
Minimum magnitude displayed is 2.5.

Températures des eaux côtières

Lieu Température

Stations météo à proximité